ルア の空港の天気 - METARとTAF

マルタ国際空港 ( LMML / MLA ) - マルタ ルア
飛行場実況気象(Metar)
観測時間06/19 07:45 CEST (06/19 05:45 UTC)
風向・風速西南西 2m/s
視程8000m
天気現象
少しの雲 雲底高度 340m
気温23℃
湿度94%
気圧1014hPa
METARLMML 190545Z 25003KT 8000 FEW011 23/22 Q1014 BECMG 9999 RMK MIST
過去の天気等 Google飛行場航空写真 Wunderground天気予報

過去48時間のMETAR

飛行場予報(TAF)
発表時間: 6/19 07:00 CEST (6/19 05:00 UTC)
予報対象時間: 19日8時 CEST ~ 20日8時 CEST
風向・風速西 4m/s
視程10km以上
なし
20日4時 CEST ~ 20日7時 CEST に 確率 30% で一時的に
視程8000m
TAF LMML 190500Z 1906/2006 27008KT CAVOK
PROB30 TEMPO 2002/2005 8000